createdAt,value
2023-05-07T00:00:05.892Z,-1.65
2023-05-07T00:02:38.602Z,-1.67
2023-05-07T00:05:06.511Z,-1.77
2023-05-07T00:07:34.113Z,-1.86
2023-05-07T00:10:01.552Z,-1.88
2023-05-07T00:12:34.791Z,-1.88
2023-05-07T00:15:04.295Z,-1.85
2023-05-07T00:17:34.895Z,-1.79
2023-05-07T00:20:02.178Z,-1.77
2023-05-07T00:22:33.464Z,-1.78
2023-05-07T00:25:01.359Z,-1.81
2023-05-07T00:27:32.883Z,-1.83
2023-05-07T00:30:05.781Z,-1.84
2023-05-07T00:32:38.092Z,-1.92
2023-05-07T00:35:06.787Z,-1.94
2023-05-07T00:37:33.929Z,-1.98
2023-05-07T00:40:01.075Z,-1.94
2023-05-07T00:42:29.004Z,-1.98
2023-05-07T00:44:56.342Z,-2.04
2023-05-07T00:47:23.514Z,-2.07
2023-05-07T00:49:50.783Z,-2.15
2023-05-07T00:52:18.771Z,-2.10
2023-05-07T00:54:45.897Z,-2.09
2023-05-07T00:57:13.379Z,-2.08
2023-05-07T00:59:41.889Z,-2.16
2023-05-07T01:02:09.392Z,-2.23
2023-05-07T01:04:40.050Z,-2.15
2023-05-07T01:07:07.689Z,-2.19
2023-05-07T01:09:36.556Z,-2.32
2023-05-07T01:12:04.611Z,-2.27
2023-05-07T01:14:34.072Z,-2.22
2023-05-07T01:17:01.511Z,-2.19
2023-05-07T01:19:32.885Z,-2.23
2023-05-07T01:22:05.358Z,-2.22
2023-05-07T01:24:39.421Z,-2.23
2023-05-07T01:27:08.527Z,-2.27
2023-05-07T01:29:37.146Z,-2.26
2023-05-07T01:32:04.850Z,-2.33
2023-05-07T01:34:35.932Z,-2.30
2023-05-07T01:37:04.002Z,-2.28
2023-05-07T01:39:31.634Z,-2.32
2023-05-07T01:42:00.773Z,-2.29
2023-05-07T01:44:29.173Z,-2.33
2023-05-07T01:46:57.176Z,-2.36
2023-05-07T01:49:24.251Z,-2.34
2023-05-07T01:51:51.551Z,-2.32
2023-05-07T01:54:18.814Z,-2.41
2023-05-07T01:56:51.544Z,-2.56
2023-05-07T01:59:18.622Z,-2.49
2023-05-07T02:01:45.733Z,-2.65
2023-05-07T02:04:13.425Z,-2.90
2023-05-07T02:06:40.623Z,-2.80
2023-05-07T02:09:10.085Z,-2.81
2023-05-07T02:11:38.424Z,-2.68
2023-05-07T02:14:06.667Z,-2.54
2023-05-07T02:16:34.092Z,-2.62
2023-05-07T02:19:02.170Z,-2.54
2023-05-07T02:21:32.259Z,-2.36
2023-05-07T02:23:59.369Z,-2.44
2023-05-07T02:26:27.043Z,-2.40
2023-05-07T02:28:57.846Z,-2.23
2023-05-07T02:31:25.121Z,-2.19
2023-05-07T02:33:52.208Z,-2.07
2023-05-07T02:36:19.365Z,-2.03
2023-05-07T02:38:53.104Z,-1.97
2023-05-07T02:41:21.701Z,-1.94
2023-05-07T02:43:48.929Z,-1.88
2023-05-07T02:46:18.139Z,-1.85
2023-05-07T02:48:49.381Z,-1.77
2023-05-07T02:51:17.692Z,-1.86
2023-05-07T02:53:44.889Z,-1.74
2023-05-07T02:56:12.086Z,-1.73
2023-05-07T02:58:43.196Z,-1.61
2023-05-07T03:01:11.767Z,-1.58
2023-05-07T03:03:45.437Z,-1.67
2023-05-07T03:06:12.517Z,-1.61
2023-05-07T03:08:39.603Z,-1.43
2023-05-07T03:11:06.768Z,-1.38
2023-05-07T03:13:33.888Z,-1.32
2023-05-07T03:16:03.961Z,-1.26
2023-05-07T03:18:31.108Z,-1.19
2023-05-07T03:20:58.529Z,-1.21
2023-05-07T03:23:25.872Z,-1.10
2023-05-07T03:25:53.479Z,-1.04
2023-05-07T03:28:21.494Z,-1.04
2023-05-07T03:30:54.699Z,-0.93
2023-05-07T03:33:25.041Z,-0.87
2023-05-07T03:35:52.270Z,-0.80
2023-05-07T03:38:23.698Z,-0.77
2023-05-07T03:40:51.337Z,-0.70
2023-05-07T03:43:18.528Z,-0.63
2023-05-07T03:45:51.071Z,-0.64
2023-05-07T03:48:30.144Z,-0.56
2023-05-07T03:50:59.743Z,-0.48
2023-05-07T03:53:30.793Z,-0.44
2023-05-07T03:55:58.001Z,-0.32
2023-05-07T03:58:25.105Z,-0.26
2023-05-07T04:00:54.394Z,-0.19
2023-05-07T04:03:26.742Z,-0.11
2023-05-07T04:05:54.681Z,-0.08
2023-05-07T04:08:22.120Z,-0.04
2023-05-07T04:11:01.288Z,-0.02
2023-05-07T04:13:31.596Z,0.09
2023-05-07T04:16:01.987Z,0.18
2023-05-07T04:18:29.733Z,0.16
2023-05-07T04:20:57.904Z,0.21
2023-05-07T04:23:27.983Z,0.35
2023-05-07T04:25:56.343Z,0.46
2023-05-07T04:28:29.697Z,0.62
2023-05-07T04:30:57.232Z,0.63
2023-05-07T04:33:24.590Z,0.84
2023-05-07T04:35:51.865Z,0.98
2023-05-07T04:38:19.491Z,0.98
2023-05-07T04:40:49.985Z,1.06
2023-05-07T04:43:21.772Z,1.22
2023-05-07T04:45:52.677Z,1.21
2023-05-07T04:48:21.660Z,1.14
2023-05-07T04:50:51.512Z,1.14
2023-05-07T04:53:19.953Z,1.22
2023-05-07T04:55:48.033Z,1.36
2023-05-07T04:58:19.047Z,1.55
2023-05-07T05:00:48.052Z,1.76
2023-05-07T05:03:15.177Z,2.01
2023-05-07T05:05:42.665Z,2.03
2023-05-07T05:08:10.181Z,2.14
2023-05-07T05:10:55.996Z,2.23
2023-05-07T05:13:23.196Z,2.34
2023-05-07T05:15:51.096Z,2.57
2023-05-07T05:18:18.596Z,2.85
2023-05-07T05:20:46.296Z,2.86
2023-05-07T05:23:13.567Z,2.76
2023-05-07T05:25:41.514Z,2.80
2023-05-07T05:28:11.626Z,2.93
2023-05-07T05:30:39.978Z,2.97
2023-05-07T05:33:07.131Z,3.21
2023-05-07T05:35:34.358Z,3.24
2023-05-07T05:38:04.925Z,3.23
2023-05-07T05:40:34.513Z,3.25
2023-05-07T05:43:04.038Z,3.30
2023-05-07T05:45:37.630Z,3.48
2023-05-07T05:48:07.239Z,3.48
2023-05-07T05:50:53.254Z,3.61
2023-05-07T05:53:20.807Z,3.88
2023-05-07T05:55:48.559Z,3.91
2023-05-07T05:58:16.419Z,4.01
2023-05-07T06:00:53.331Z,4.27
2023-05-07T06:03:23.516Z,4.12
2023-05-07T06:05:51.737Z,3.81
2023-05-07T06:08:21.375Z,3.50
2023-05-07T06:10:48.872Z,3.57
2023-05-07T06:13:16.983Z,3.88
2023-05-07T06:15:44.641Z,4.37
2023-05-07T06:18:13.977Z,4.73
2023-05-07T06:20:41.984Z,4.89
2023-05-07T06:23:37.801Z,4.77
2023-05-07T06:26:06.038Z,4.56
2023-05-07T06:28:38.580Z,4.27
2023-05-07T06:31:18.242Z,3.76
2023-05-07T06:33:55.164Z,3.66
2023-05-07T06:36:28.823Z,3.46
2023-05-07T06:39:01.620Z,3.27
2023-05-07T06:41:29.159Z,3.98
2023-05-07T06:44:00.420Z,4.00
2023-05-07T06:46:36.567Z,3.95
2023-05-07T06:49:06.115Z,4.01
2023-05-07T06:51:33.602Z,4.18
2023-05-07T06:54:06.601Z,3.99
2023-05-07T06:56:36.299Z,3.85
2023-05-07T06:59:05.114Z,3.73
2023-05-07T07:01:36.695Z,4.12
2023-05-07T07:04:05.214Z,4.69
2023-05-07T07:06:33.468Z,5.10
2023-05-07T07:09:06.547Z,5.21
2023-05-07T07:11:34.357Z,5.56
2023-05-07T07:14:01.706Z,5.32
2023-05-07T07:16:32.446Z,4.75
2023-05-07T07:19:00.880Z,4.65
2023-05-07T07:21:31.679Z,4.66
2023-05-07T07:23:59.851Z,4.90
2023-05-07T07:26:26.933Z,4.98
2023-05-07T07:28:56.648Z,5.40
2023-05-07T07:31:25.232Z,5.37
2023-05-07T07:33:53.194Z,5.40
2023-05-07T07:36:21.034Z,5.21
2023-05-07T07:38:49.267Z,5.67
2023-05-07T07:41:18.058Z,6.65
2023-05-07T07:43:45.547Z,7.20
2023-05-07T07:46:12.753Z,7.46
2023-05-07T07:48:40.500Z,7.56
2023-05-07T07:51:10.825Z,7.49
2023-05-07T07:53:38.358Z,7.55
2023-05-07T07:56:09.263Z,7.62
2023-05-07T07:58:37.914Z,7.89
2023-05-07T08:01:05.724Z,8.43
2023-05-07T08:03:33.742Z,8.79
2023-05-07T08:06:12.820Z,9.07
2023-05-07T08:08:40.720Z,8.51
2023-05-07T08:11:08.197Z,8.07
2023-05-07T08:13:37.509Z,7.59
2023-05-07T08:16:05.355Z,6.86
2023-05-07T08:18:34.324Z,6.41
2023-05-07T08:21:06.200Z,6.07
2023-05-07T08:23:35.545Z,5.88
2023-05-07T08:26:04.738Z,5.89
2023-05-07T08:28:33.152Z,6.30
2023-05-07T08:31:02.340Z,6.84
2023-05-07T08:33:36.801Z,7.62
2023-05-07T08:36:04.677Z,8.10
2023-05-07T08:38:32.536Z,9.45
2023-05-07T08:40:59.982Z,9.66
2023-05-07T08:43:30.507Z,8.72
2023-05-07T08:46:01.806Z,8.02
2023-05-07T08:48:32.435Z,7.54
2023-05-07T08:51:17.827Z,7.35
2023-05-07T08:53:47.271Z,7.32
2023-05-07T08:56:20.363Z,8.26
2023-05-07T08:58:57.814Z,9.44
2023-05-07T09:01:25.904Z,9.83
2023-05-07T09:03:54.172Z,9.37
2023-05-07T09:06:23.207Z,9.12
2023-05-07T09:08:52.979Z,10.73
2023-05-07T09:11:24.295Z,11.98
2023-05-07T09:14:02.349Z,11.22
2023-05-07T09:16:34.201Z,10.21
2023-05-07T09:19:02.236Z,9.69
2023-05-07T09:21:29.700Z,8.85
2023-05-07T09:23:59.672Z,8.28
2023-05-07T09:26:36.234Z,8.29
2023-05-07T09:29:04.956Z,8.11
2023-05-07T09:31:32.305Z,8.03
2023-05-07T09:34:00.183Z,8.58
2023-05-07T09:36:30.613Z,11.27
2023-05-07T09:39:01.135Z,13.32
2023-05-07T09:41:31.497Z,13.81
2023-05-07T09:44:08.232Z,12.67
2023-05-07T09:46:44.877Z,11.08
2023-05-07T09:49:24.293Z,9.89
2023-05-07T09:51:56.436Z,10.52
2023-05-07T09:54:30.223Z,11.38
2023-05-07T09:56:59.300Z,13.21
2023-05-07T09:59:30.425Z,11.84
2023-05-07T10:02:03.432Z,13.12
2023-05-07T10:04:35.434Z,12.23
2023-05-07T10:07:04.777Z,11.25
2023-05-07T10:09:33.521Z,10.39
2023-05-07T10:12:00.988Z,10.53
2023-05-07T10:14:28.680Z,10.28
2023-05-07T10:16:56.249Z,10.02
2023-05-07T10:19:24.181Z,9.52
2023-05-07T10:22:00.770Z,8.89
2023-05-07T10:24:36.986Z,9.28
2023-05-07T10:27:12.459Z,9.60
2023-05-07T10:29:53.821Z,11.19
2023-05-07T10:32:21.184Z,11.66
2023-05-07T10:34:50.389Z,11.56
2023-05-07T10:37:18.040Z,10.97
2023-05-07T10:39:47.238Z,10.81
2023-05-07T10:42:15.882Z,10.75
2023-05-07T10:44:48.934Z,10.73
2023-05-07T10:47:23.590Z,10.73
2023-05-07T10:50:06.646Z,10.73
2023-05-07T10:52:38.840Z,10.88
2023-05-07T10:55:21.365Z,10.71
2023-05-07T10:57:57.160Z,10.97
2023-05-07T11:03:06.381Z,10.14
2023-05-07T11:05:40.792Z,10.13
2023-05-07T11:09:00.694Z,12.55
2023-05-07T11:11:56.944Z,15.62
2023-05-07T11:14:43.395Z,15.73
2023-05-07T11:17:28.366Z,12.33
2023-05-07T11:20:03.802Z,10.79
2023-05-07T11:23:01.202Z,10.27
2023-05-07T11:25:34.690Z,10.06
2023-05-07T11:28:23.167Z,10.06
2023-05-07T11:31:00.882Z,10.12
2023-05-07T11:33:29.456Z,10.11
2023-05-07T11:35:58.458Z,9.83
2023-05-07T11:38:32.053Z,9.83
2023-05-07T11:41:01.802Z,9.74
2023-05-07T11:43:29.028Z,9.52
2023-05-07T11:45:56.216Z,9.27
2023-05-07T11:48:26.010Z,8.89
2023-05-07T11:50:55.730Z,8.51
2023-05-07T11:53:26.496Z,8.38
2023-05-07T11:55:56.755Z,8.58
2023-05-07T11:58:26.615Z,8.87
2023-05-07T12:00:54.837Z,9.06
2023-05-07T12:03:29.743Z,8.98
2023-05-07T12:05:59.221Z,9.07
2023-05-07T12:08:27.631Z,12.31
2023-05-07T12:10:56.373Z,12.96
2023-05-07T12:13:27.425Z,12.36
2023-05-07T12:15:55.565Z,11.42
2023-05-07T12:18:23.477Z,10.93
2023-05-07T12:20:52.714Z,10.47
2023-05-07T12:23:22.270Z,10.06
2023-05-07T12:25:50.949Z,9.59
2023-05-07T12:28:19.638Z,9.36
2023-05-07T12:30:54.525Z,9.31
2023-05-07T12:33:25.707Z,9.43
2023-05-07T12:35:57.129Z,9.44
2023-05-07T12:38:24.582Z,9.62
2023-05-07T12:40:55.807Z,10.70
2023-05-07T12:43:26.187Z,12.67
2023-05-07T12:45:56.794Z,14.02
2023-05-07T12:48:24.794Z,15.15
2023-05-07T12:50:54.130Z,14.66
2023-05-07T12:53:23.117Z,13.89
2023-05-07T12:55:57.918Z,12.34
2023-05-07T12:58:31.162Z,10.74
2023-05-07T13:01:01.103Z,10.03
2023-05-07T13:03:33.548Z,9.66
2023-05-07T13:06:05.536Z,9.94
2023-05-07T13:08:46.234Z,9.53
2023-05-07T13:11:14.423Z,9.39
2023-05-07T13:13:42.453Z,9.28
2023-05-07T13:16:11.587Z,9.33
2023-05-07T13:18:40.402Z,9.40
2023-05-07T13:21:14.403Z,9.35
2023-05-07T13:23:42.301Z,9.24
2023-05-07T13:26:24.815Z,9.47
2023-05-07T13:28:56.251Z,9.48
2023-05-07T13:31:27.298Z,9.55
2023-05-07T13:33:54.537Z,9.63
2023-05-07T13:36:21.810Z,9.68
2023-05-07T13:38:52.835Z,9.42
2023-05-07T13:41:20.159Z,10.49
2023-05-07T13:43:47.209Z,11.66
2023-05-07T13:46:18.395Z,13.85
2023-05-07T13:48:45.630Z,14.92
2023-05-07T13:51:18.142Z,14.53
2023-05-07T13:54:07.718Z,12.53
2023-05-07T13:56:35.215Z,11.30
2023-05-07T13:59:04.777Z,11.02
2023-05-07T14:01:35.068Z,10.67
2023-05-07T14:04:02.278Z,10.81
2023-05-07T14:06:29.325Z,11.67
2023-05-07T14:08:59.207Z,12.79
2023-05-07T14:11:26.608Z,12.41
2023-05-07T14:13:53.656Z,11.92
2023-05-07T14:16:20.727Z,11.92
2023-05-07T14:18:48.095Z,12.42
2023-05-07T14:21:21.353Z,11.69
2023-05-07T14:23:51.402Z,11.43
2023-05-07T14:26:21.909Z,11.06
2023-05-07T14:29:00.126Z,11.18
2023-05-07T14:31:31.107Z,11.49
2023-05-07T14:34:01.828Z,11.89
2023-05-07T14:36:28.879Z,14.11
2023-05-07T14:38:56.058Z,17.23
2023-05-07T14:41:23.776Z,19.16
2023-05-07T14:43:56.938Z,20.55
2023-05-07T14:46:27.117Z,19.57
2023-05-07T14:48:57.124Z,20.32
2023-05-07T14:51:36.744Z,20.89
2023-05-07T14:54:08.774Z,20.96
2023-05-07T14:57:41.502Z,19.43
2023-05-07T15:00:00.327Z,16.22
2023-05-07T15:02:31.879Z,13.85
2023-05-07T15:05:01.831Z,12.06
2023-05-07T15:07:35.515Z,11.25
2023-05-07T15:10:02.457Z,10.74
2023-05-07T15:12:31.490Z,10.58
2023-05-07T15:14:58.574Z,10.27
2023-05-07T15:17:25.720Z,10.00
2023-05-07T15:19:54.365Z,9.76
2023-05-07T15:22:22.817Z,9.68
2023-05-07T15:24:49.996Z,9.53
2023-05-07T15:27:18.207Z,9.39
2023-05-07T15:29:45.744Z,9.41
2023-05-07T15:32:12.982Z,9.33
2023-05-07T15:34:41.977Z,9.33
2023-05-07T15:37:09.301Z,9.08
2023-05-07T15:39:40.202Z,9.05
2023-05-07T15:42:07.473Z,9.12
2023-05-07T15:44:35.981Z,8.89
2023-05-07T15:47:03.223Z,8.93
2023-05-07T15:49:30.687Z,8.70
2023-05-07T15:52:00.909Z,8.58
2023-05-07T15:54:27.993Z,8.60
2023-05-07T15:56:55.170Z,8.43
2023-05-07T15:59:22.689Z,8.33
2023-05-07T16:01:55.497Z,8.17
2023-05-07T16:04:22.591Z,8.12
2023-05-07T16:06:49.776Z,7.96
2023-05-07T16:09:16.957Z,7.84
2023-05-07T16:11:44.101Z,7.75
2023-05-07T16:14:12.040Z,7.66
2023-05-07T16:16:40.965Z,7.56
2023-05-07T16:19:08.004Z,7.47
2023-05-07T16:21:43.731Z,7.45
2023-05-07T16:24:11.025Z,7.43
2023-05-07T16:26:38.333Z,7.40
2023-05-07T16:29:08.793Z,7.31
2023-05-07T16:31:36.828Z,7.35
2023-05-07T16:34:04.828Z,7.41
2023-05-07T16:36:32.126Z,7.43
2023-05-07T16:41:40.530Z,7.33
2023-05-07T16:44:09.570Z,7.30
2023-05-07T16:46:36.761Z,7.33
2023-05-07T16:49:03.917Z,7.29
2023-05-07T16:51:33.971Z,7.28
2023-05-07T16:54:01.196Z,7.26
2023-05-07T16:56:28.484Z,7.18
2023-05-07T16:58:55.939Z,7.26
2023-05-07T17:01:23.039Z,7.13
2023-05-07T17:03:50.903Z,7.10
2023-05-07T17:06:18.270Z,7.10
2023-05-07T17:08:45.532Z,7.15
2023-05-07T17:11:12.974Z,7.18
2023-05-07T17:13:41.208Z,7.05
2023-05-07T17:16:08.560Z,6.94
2023-05-07T17:18:35.872Z,6.84
2023-05-07T17:21:03.060Z,6.72
2023-05-07T17:23:30.203Z,6.57
2023-05-07T17:25:58.578Z,6.46
2023-05-07T17:28:26.649Z,6.37
2023-05-07T17:30:53.654Z,6.20
2023-05-07T17:33:22.475Z,6.10
2023-05-07T17:35:50.037Z,5.94
2023-05-07T17:38:18.353Z,5.76
2023-05-07T17:40:46.191Z,5.79
2023-05-07T17:43:13.277Z,5.68
2023-05-07T17:45:40.892Z,5.61
2023-05-07T17:48:08.349Z,5.50
2023-05-07T17:50:38.260Z,5.32
2023-05-07T17:53:06.206Z,5.21
2023-05-07T17:55:40.516Z,4.99
2023-05-07T17:58:07.792Z,5.06
2023-05-07T18:00:36.174Z,4.93
2023-05-07T18:03:06.647Z,5.02
2023-05-07T18:05:36.693Z,4.91
2023-05-07T18:08:04.019Z,4.72
2023-05-07T18:10:31.338Z,4.75
2023-05-07T18:12:58.617Z,4.77
2023-05-07T18:15:25.846Z,4.66
2023-05-07T18:17:53.118Z,4.58
2023-05-07T18:20:20.636Z,4.42
2023-05-07T18:22:50.537Z,4.48
2023-05-07T18:25:18.014Z,4.37
2023-05-07T18:27:45.666Z,4.40
2023-05-07T18:30:13.433Z,4.32
2023-05-07T18:32:41.139Z,4.21
2023-05-07T18:35:11.029Z,4.23
2023-05-07T18:37:38.110Z,4.17
2023-05-07T18:40:06.192Z,4.07
2023-05-07T18:42:37.287Z,4.09
2023-05-07T18:45:05.755Z,4.06
2023-05-07T18:47:54.100Z,3.90
2023-05-07T18:50:42.429Z,3.98
2023-05-07T18:53:09.597Z,3.86
2023-05-07T18:55:36.717Z,3.74
2023-05-07T18:58:03.812Z,3.63
2023-05-07T19:00:30.955Z,3.71
2023-05-07T19:02:58.103Z,3.61
2023-05-07T19:05:25.321Z,3.53
2023-05-07T19:07:52.321Z,3.43
2023-05-07T19:10:19.486Z,3.46
2023-05-07T19:12:46.877Z,3.39
2023-05-07T19:15:14.518Z,3.31
2023-05-07T19:17:44.424Z,3.26
2023-05-07T19:20:11.953Z,3.24
2023-05-07T19:22:39.312Z,3.30
2023-05-07T19:25:07.188Z,3.34
2023-05-07T19:27:34.519Z,3.31
2023-05-07T19:30:01.917Z,3.24
2023-05-07T19:32:31.929Z,3.14
2023-05-07T19:34:59.094Z,3.19
2023-05-07T19:37:27.959Z,3.08
2023-05-07T19:39:55.081Z,3.04
2023-05-07T19:42:24.457Z,3.00
2023-05-07T19:44:59.468Z,3.00
2023-05-07T19:47:26.917Z,2.80
2023-05-07T19:49:56.985Z,2.80
2023-05-07T19:52:26.298Z,2.86
2023-05-07T19:54:53.551Z,2.78
2023-05-07T19:57:20.828Z,2.75
2023-05-07T19:59:47.929Z,2.54
2023-05-07T20:02:15.676Z,2.67
2023-05-07T20:04:49.805Z,2.71
2023-05-07T20:07:16.893Z,2.59
2023-05-07T20:09:43.895Z,2.47
2023-05-07T20:12:11.094Z,2.43
2023-05-07T20:14:38.184Z,2.31
2023-05-07T20:17:08.885Z,2.27
2023-05-07T20:19:36.024Z,2.26
2023-05-07T20:22:03.153Z,2.23
2023-05-07T20:24:30.282Z,2.21
2023-05-07T20:26:57.561Z,2.20
2023-05-07T20:29:26.355Z,2.23
2023-05-07T20:31:53.654Z,2.23
2023-05-07T20:34:20.966Z,2.19
2023-05-07T20:36:48.035Z,2.13
2023-05-07T20:39:16.258Z,2.07
2023-05-07T20:41:46.643Z,2.00
2023-05-07T20:44:13.823Z,2.00
2023-05-07T20:46:41.058Z,1.99
2023-05-07T20:49:14.990Z,1.95
2023-05-07T20:51:42.518Z,1.92
2023-05-07T20:54:09.656Z,1.83
2023-05-07T20:56:37.153Z,1.79
2023-05-07T20:59:05.061Z,1.81
2023-05-07T21:01:32.313Z,1.56
2023-05-07T21:03:59.593Z,1.55
2023-05-07T21:06:26.832Z,1.53
2023-05-07T21:08:54.435Z,1.36
2023-05-07T21:11:21.840Z,1.36
2023-05-07T21:13:52.146Z,1.16
2023-05-07T21:16:19.418Z,1.24
2023-05-07T21:18:46.634Z,1.03
2023-05-07T21:21:19.006Z,0.95
2023-05-07T21:23:46.045Z,0.91
2023-05-07T21:26:19.624Z,0.91
2023-05-07T21:28:46.856Z,0.85
2023-05-07T21:31:16.582Z,0.84
2023-05-07T21:33:44.469Z,0.79
2023-05-07T21:36:11.840Z,0.76
2023-05-07T21:38:41.321Z,0.78
2023-05-07T21:41:09.040Z,0.71
2023-05-07T21:43:37.023Z,0.52
2023-05-07T21:46:10.575Z,0.58
2023-05-07T21:48:38.888Z,0.51
2023-05-07T21:51:07.648Z,0.56
2023-05-07T21:53:35.145Z,0.45
2023-05-07T21:56:29.424Z,0.46
2023-05-07T21:58:56.638Z,0.25
2023-05-07T22:01:26.940Z,0.26
2023-05-07T22:03:56.877Z,0.29
2023-05-07T22:06:25.355Z,0.21
2023-05-07T22:08:53.550Z,0.07
2023-05-07T22:11:21.278Z,0.13
2023-05-07T22:13:48.419Z,0.05
2023-05-07T22:16:15.792Z,-0.05
2023-05-07T22:18:43.930Z,-0.14
2023-05-07T22:21:13.071Z,-0.13
2023-05-07T22:23:40.130Z,-0.17
2023-05-07T22:26:11.872Z,-0.22
2023-05-07T22:28:39.241Z,-0.29
2023-05-07T22:31:06.800Z,-0.18
2023-05-07T22:33:33.808Z,-0.21
2023-05-07T22:36:00.930Z,-0.23
2023-05-07T22:38:27.950Z,-0.24
2023-05-07T22:40:55.057Z,-0.22
2023-05-07T22:43:22.085Z,-0.34
2023-05-07T22:45:49.179Z,-0.20
2023-05-07T22:48:18.797Z,-0.25
2023-05-07T22:50:45.909Z,-0.32
2023-05-07T22:53:13.102Z,-0.38
2023-05-07T22:55:40.118Z,-0.40
2023-05-07T22:58:10.166Z,-0.42
2023-05-07T23:00:37.919Z,-0.48
2023-05-07T23:03:05.189Z,-0.55
2023-05-07T23:05:32.303Z,-0.54
2023-05-07T23:07:59.449Z,-0.69
2023-05-07T23:10:26.571Z,-0.68
2023-05-07T23:12:53.994Z,-0.73
2023-05-07T23:15:21.452Z,-0.74
2023-05-07T23:17:49.046Z,-0.73
2023-05-07T23:20:16.456Z,-0.74
2023-05-07T23:22:43.474Z,-0.68
2023-05-07T23:25:11.503Z,-0.73
2023-05-07T23:27:38.828Z,-0.76
2023-05-07T23:30:09.651Z,-0.81
2023-05-07T23:32:39.479Z,-0.84
2023-05-07T23:35:07.092Z,-0.83
2023-05-07T23:37:34.658Z,-0.81
2023-05-07T23:40:02.126Z,-0.85
2023-05-07T23:42:31.320Z,-0.91
2023-05-07T23:44:58.404Z,-1.01
2023-05-07T23:47:25.717Z,-1.01
2023-05-07T23:49:52.834Z,-1.03
2023-05-07T23:52:20.117Z,-1.08
2023-05-07T23:54:49.516Z,-1.09
2023-05-07T23:57:19.012Z,-1.11
2023-05-07T23:59:45.984Z,-1.07
